Riga International Airport Riga LV
ICAO: EVRA
IATA: RIX
Category: Large
Scheduled Services: Yes

Elevation: 36 ft
TransAlt. 5000 ft.

Airport Communications:
APP:129.925
ATIS:121.2
Riga Ground:118.8
Riga Apron:131.6
TWR:118.1

EVRA Zoom In..

If you have problems with the map follow the link
https://www.worldairports.se/pages/airport.php?
ICAO=EVRA

Runways:

(A) RW 18 length 9514 ft width 148 ft
ILS 111.10 / hdg 178

(B) RW 36 length 9514 ft width 148 ft
ILS 108.10 / hdg 358

Location; EVRA
Day. 25 / Time. 23.50 Zulu
* QNH: 1013
* Temperature: -02° c. -28.4°f.
* Wind from: 180° Speed 05 kn.
Dewpoint: -03° c.
Visibility: 10 km or more,
No clouds below 1,500 m.
No cumulonimbus, and no significant weather
fenomena in the aerodrome or its vicinity.
No significant changes expected in the near future.

EVRA 252350Z 18005KT CAVOK M02/M03 Q1013 R18/320195 NOSIG


Wind From 180°
Speed 05 kn.

 
 
jpsmedia worldairports.se 2020   terms of use